Time;durP1;ratioP1;P1;durP2;ratioP2;P2;SDS_P1;SDS_P2;PMS_P1;PMS_P2;Temp;Humidity;BMP_temperature;BMP_pressure;BME280_temperature;BME280_humidity;BME280_pressure;Samples;Min_cycle;Max_cycle;Signal;HPM_P1;HPM_P2
2022/09/19 00:00:06;;;;;;;;;2.67;2.67;;;;;;;;5056236;28;45694;-71
2022/09/19 00:02:32;;;;;;;;;9.67;6.67;;;;;;;;5068837;28;45631;-71
2022/09/19 00:04:57;;;;;;;;;16.67;9.67;;;;;;;;5055801;28;45712;-71
2022/09/19 00:07:22;;;;;;;;;4.00;3.00;;;;;;;;5061133;28;45571;-72
2022/09/19 00:09:48;;;;;;;;;5.33;3.67;;;;;;;;5063653;27;45660;-70
2022/09/19 00:12:13;;;;;;;;;4.67;4.33;;;;;;;;5073726;27;45751;-71
2022/09/19 00:14:38;;;;;;;;;2.33;2.33;;;;;;;;5066570;28;45636;-72
2022/09/19 00:17:07;;;;;;;;;8.33;5.33;;;;;;;;5069076;27;45501;-72
2022/09/19 00:19:32;;;;;;;;;1.67;0.67;;;;;;;;5066442;27;45712;-70
2022/09/19 00:22:00;;;;;;;;;1.67;1.67;;;;;;;;5069060;28;45439;-70
2022/09/19 00:27:10;;;;;;;;;3.00;3.00;;;;;;;;5062780;27;45369;-72
2022/09/19 00:29:36;;;;;;;;;2.33;2.33;;;;;;;;5069436;27;46903;-72
2022/09/19 00:32:05;;;;;;;;;5.00;3.67;;;;;;;;5052726;28;46151;-74
2022/09/19 00:34:30;;;;;;;;;2.33;2.33;;;;;;;;5056347;28;45782;-77
2022/09/19 00:36:55;;;;;;;;;3.67;3.67;;;;;;;;5074950;28;45424;-75
2022/09/19 00:39:21;;;;;;;;;2.00;2.00;;;;;;;;5070660;28;46096;-76
2022/09/19 00:41:47;;;;;;;;;4.67;4.67;;;;;;;;5061781;28;45353;-75
2022/09/19 00:44:21;;;;;;;;;7.67;6.33;;;;;;;;5065728;27;45374;-76
2022/09/19 00:46:48;;;;;;;;;4.00;3.00;;;;;;;;5066437;27;45427;-75
2022/09/19 00:49:14;;;;;;;;;8.00;7.33;;;;;;;;5067602;27;45539;-75
2022/09/19 00:51:40;;;;;;;;;6.67;6.67;;;;;;;;5053445;28;45392;-75
2022/09/19 00:54:11;;;;;;;;;4.67;4.00;;;;;;;;5074065;27;45503;-76
2022/09/19 00:56:40;;;;;;;;;4.67;3.00;;;;;;;;5046196;28;46089;-78
2022/09/19 00:59:06;;;;;;;;;7.33;7.00;;;;;;;;5049469;28;46480;-76
2022/09/19 01:01:31;;;;;;;;;5.67;3.67;;;;;;;;5054341;28;45355;-74
2022/09/19 01:03:56;;;;;;;;;7.00;5.67;;;;;;;;5075242;27;45687;-74
2022/09/19 01:06:37;;;;;;;;;2.67;2.67;;;;;;;;5083372;27;45617;-75
2022/09/19 01:09:02;;;;;;;;;8.00;5.67;;;;;;;;5073776;28;45670;-74
2022/09/19 01:11:39;;;;;;;;;12.00;12.00;;;;;;;;5069246;27;46080;-73
2022/09/19 01:14:08;;;;;;;;;3.00;3.00;;;;;;;;5062420;28;45440;-75
2022/09/19 01:16:41;;;;;;;;;6.67;6.67;;;;;;;;5064590;27;45868;-75
2022/09/19 01:19:16;;;;;;;;;5.67;4.67;;;;;;;;5051151;27;48145;-75
2022/09/19 01:21:48;;;;;;;;;4.00;2.00;;;;;;;;5066362;28;45513;-75
2022/09/19 01:24:24;;;;;;;;;5.67;4.00;;;;;;;;5064439;27;45771;-75
2022/09/19 01:27:05;;;;;;;;;3.00;3.00;;;;;;;;5069632;28;45598;-75
2022/09/19 01:29:42;;;;;;;;;7.00;7.00;;;;;;;;5073523;27;45476;-75
2022/09/19 01:32:09;;;;;;;;;3.33;3.33;;;;;;;;5070969;27;45482;-75
2022/09/19 01:34:37;;;;;;;;;3.33;3.33;;;;;;;;5070158;27;45692;-75
2022/09/19 01:37:27;;;;;;;;;4.00;2.67;;;;;;;;5070242;28;45555;-76
2022/09/19 01:39:55;;;;;;;;;6.33;3.67;;;;;;;;5057582;28;47325;-75
2022/09/19 01:42:20;;;;;;;;;3.00;3.00;;;;;;;;5073636;27;45763;-74
2022/09/19 01:44:46;;;;;;;;;4.67;3.67;;;;;;;;5068765;27;45659;-74
2022/09/19 01:47:29;;;;;;;;;1.33;1.33;;;;;;;;5071577;28;45687;-75
2022/09/19 01:50:25;;;;;;;;;3.33;3.33;;;;;;;;5065562;28;45423;-75
2022/09/19 01:52:53;;;;;;;;;5.00;4.00;;;;;;;;5046327;28;45353;-74
2022/09/19 01:55:39;;;;;;;;;3.33;3.33;;;;;;;;5073129;28;45257;-74
2022/09/19 01:58:04;;;;;;;;;6.33;5.67;;;;;;;;5061560;27;45697;-74
2022/09/19 02:00:31;;;;;;;;;7.00;6.67;;;;;;;;5045192;28;45945;-75
2022/09/19 02:03:02;;;;;;;;;4.00;4.00;;;;;;;;5072835;27;45677;-74
2022/09/19 02:05:42;;;;;;;;;8.67;6.00;;;;;;;;5076520;27;45633;-75
2022/09/19 02:08:11;;;;;;;;;3.67;3.67;;;;;;;;5052111;27;45749;-74
2022/09/19 02:10:40;;;;;;;;;11.33;8.00;;;;;;;;5056745;28;46780;-73
2022/09/19 02:13:08;;;;;;;;;14.00;12.00;;;;;;;;5061954;27;45815;-74
2022/09/19 02:15:34;;;;;;;;;3.33;3.33;;;;;;;;5064975;28;45512;-76
2022/09/19 02:18:12;;;;;;;;;9.67;8.00;;;;;;;;5068489;28;45401;-74
2022/09/19 02:20:39;;;;;;;;;4.67;4.67;;;;;;;;5066010;28;45326;-76
2022/09/19 02:23:11;;;;;;;;;7.00;7.00;;;;;;;;5065826;27;45464;-74
2022/09/19 02:25:37;;;;;;;;;6.33;6.33;;;;;;;;5073150;28;45464;-75
2022/09/19 02:28:09;;;;;;;;;9.33;5.00;;;;;;;;5072008;27;45354;-75
2022/09/19 02:30:35;;;;;;;;;5.00;5.00;;;;;;;;5071160;27;46731;-74
2022/09/19 02:33:04;;;;;;;;;6.67;4.00;;;;;;;;5069839;28;45407;-74
2022/09/19 02:35:38;;;;;;;;;5.67;4.67;;;;;;;;5067741;28;45571;-73
2022/09/19 02:38:22;;;;;;;;;4.00;4.00;;;;;;;;5072681;27;45782;-74
2022/09/19 02:40:50;;;;;;;;;9.67;6.00;;;;;;;;5071695;28;45993;-74
2022/09/19 02:43:30;;;;;;;;;6.00;4.33;;;;;;;;5072007;28;45435;-76
2022/09/19 02:46:00;;;;;;;;;3.67;3.67;;;;;;;;5060578;27;45262;-74
2022/09/19 02:48:44;;;;;;;;;4.00;4.00;;;;;;;;5071778;28;45246;-74
2022/09/19 02:51:21;;;;;;;;;8.00;7.00;;;;;;;;5072611;27;46232;-75
2022/09/19 02:53:50;;;;;;;;;7.00;4.00;;;;;;;;5053983;27;45597;-77
2022/09/19 02:56:18;;;;;;;;;4.00;3.00;;;;;;;;5054510;28;45506;-74
2022/09/19 02:58:50;;;;;;;;;8.67;4.00;;;;;;;;5069153;27;45686;-75
2022/09/19 03:01:19;;;;;;;;;5.00;5.00;;;;;;;;5046322;28;46144;-74
2022/09/19 03:06:44;;;;;;;;;4.33;4.33;;;;;;;;5079559;27;45351;-75
2022/09/19 03:09:11;;;;;;;;;5.33;5.33;;;;;;;;5075260;28;45532;-73
2022/09/19 03:11:39;;;;;;;;;3.00;2.00;;;;;;;;5073621;28;47237;-74
2022/09/19 03:14:05;;;;;;;;;5.33;4.00;;;;;;;;5074887;28;45842;-74
2022/09/19 03:16:35;;;;;;;;;3.00;3.00;;;;;;;;5075035;27;45439;-74
2022/09/19 03:19:07;;;;;;;;;4.00;4.00;;;;;;;;5074757;27;45782;-75
2022/09/19 03:21:33;;;;;;;;;7.00;6.67;;;;;;;;5075281;27;45649;-77
2022/09/19 03:23:59;;;;;;;;;5.00;4.00;;;;;;;;5056751;28;45597;-77
2022/09/19 03:26:27;;;;;;;;;6.00;5.00;;;;;;;;5070458;27;45525;-75
2022/09/19 03:28:55;;;;;;;;;6.00;6.00;;;;;;;;5056685;27;45732;-75
2022/09/19 03:31:22;;;;;;;;;5.00;5.00;;;;;;;;5063700;28;45760;-75
2022/09/19 03:33:48;;;;;;;;;7.00;7.00;;;;;;;;5061476;27;45382;-76
2022/09/19 03:36:14;;;;;;;;;8.33;5.67;;;;;;;;5063323;27;45896;-77
2022/09/19 03:38:50;;;;;;;;;5.00;5.00;;;;;;;;5053760;28;47043;-75
2022/09/19 03:41:16;;;;;;;;;8.00;7.67;;;;;;;;5080547;27;46059;-75
2022/09/19 03:43:44;;;;;;;;;7.00;5.33;;;;;;;;5059016;28;45296;-74
2022/09/19 03:46:11;;;;;;;;;6.00;6.00;;;;;;;;5055768;28;45601;-73
2022/09/19 03:48:37;;;;;;;;;8.67;7.00;;;;;;;;5040654;28;45795;-73
2022/09/19 03:51:02;;;;;;;;;6.00;6.00;;;;;;;;5075376;27;46249;-74
2022/09/19 03:53:27;;;;;;;;;6.00;6.00;;;;;;;;5066650;27;45759;-73
2022/09/19 03:55:54;;;;;;;;;8.33;6.67;;;;;;;;5066877;27;45605;-74
2022/09/19 03:58:19;;;;;;;;;5.67;5.00;;;;;;;;5085998;27;45480;-74
2022/09/19 04:00:45;;;;;;;;;5.00;5.00;;;;;;;;5066807;28;45708;-75
2022/09/19 04:03:10;;;;;;;;;7.33;6.00;;;;;;;;5059088;28;45430;-75
2022/09/19 04:05:35;;;;;;;;;7.00;6.67;;;;;;;;5077041;27;45326;-75
2022/09/19 04:08:01;;;;;;;;;5.67;4.67;;;;;;;;5040797;28;45539;-74
2022/09/19 04:10:26;;;;;;;;;6.00;6.00;;;;;;;;5044790;28;47952;-74
2022/09/19 04:12:52;;;;;;;;;7.00;7.00;;;;;;;;5052229;28;45746;-74
2022/09/19 04:15:17;;;;;;;;;9.33;7.33;;;;;;;;5056210;27;45559;-74
2022/09/19 04:17:42;;;;;;;;;6.33;5.33;;;;;;;;5068949;28;45574;-74
2022/09/19 04:20:10;;;;;;;;;7.00;5.00;;;;;;;;5070485;27;45336;-75
2022/09/19 04:22:37;;;;;;;;;10.00;7.00;;;;;;;;5063210;28;45638;-76
2022/09/19 04:25:02;;;;;;;;;7.00;6.00;;;;;;;;5066829;27;45330;-75
2022/09/19 04:27:28;;;;;;;;;6.67;6.33;;;;;;;;5069135;27;45764;-77
2022/09/19 04:29:53;;;;;;;;;15.00;12.67;;;;;;;;5061855;27;46403;-77
2022/09/19 04:32:18;;;;;;;;;5.00;5.00;;;;;;;;5064286;27;45687;-77
2022/09/19 04:34:43;;;;;;;;;9.67;7.67;;;;;;;;5068321;27;45376;-77
2022/09/19 04:37:09;;;;;;;;;17.00;15.00;;;;;;;;5066922;27;46241;-77
2022/09/19 04:39:34;;;;;;;;;33.00;30.00;;;;;;;;5065725;27;46369;-76
2022/09/19 04:42:01;;;;;;;;;12.00;12.00;;;;;;;;5067957;27;45787;-75
2022/09/19 04:44:29;;;;;;;;;11.00;8.67;;;;;;;;5047792;27;45821;-72
2022/09/19 04:46:55;;;;;;;;;16.67;13.00;;;;;;;;5073039;27;46318;-78
2022/09/19 04:49:20;;;;;;;;;10.00;9.33;;;;;;;;5062496;27;46650;-73
2022/09/19 04:51:46;;;;;;;;;13.33;9.00;;;;;;;;5065846;27;46131;-71
2022/09/19 04:54:11;;;;;;;;;10.00;10.00;;;;;;;;5049781;27;45498;-73
2022/09/19 04:56:37;;;;;;;;;11.33;10.33;;;;;;;;5068570;27;45963;-69
2022/09/19 04:59:03;;;;;;;;;6.67;6.67;;;;;;;;5048634;28;46659;-71
2022/09/19 05:01:30;;;;;;;;;8.33;8.00;;;;;;;;5069572;27;45428;-70
2022/09/19 05:03:56;;;;;;;;;6.00;6.00;;;;;;;;5068525;27;45910;-70
2022/09/19 05:06:21;;;;;;;;;10.67;10.67;;;;;;;;5066893;27;45500;-71
2022/09/19 05:08:46;;;;;;;;;8.33;8.33;;;;;;;;5059674;27;45712;-70
2022/09/19 05:11:12;;;;;;;;;9.67;8.33;;;;;;;;5045778;27;45352;-69
2022/09/19 05:13:38;;;;;;;;;8.00;7.00;;;;;;;;5048388;28;45698;-70
2022/09/19 05:16:04;;;;;;;;;6.00;5.67;;;;;;;;5071070;27;45570;-70
2022/09/19 05:18:32;;;;;;;;;11.00;8.00;;;;;;;;5066593;27;47116;-70
2022/09/19 05:21:02;;;;;;;;;7.33;7.00;;;;;;;;5066814;27;45461;-69
2022/09/19 05:23:27;;;;;;;;;11.67;7.33;;;;;;;;5067784;27;45553;-74
2022/09/19 05:25:53;;;;;;;;;7.67;6.67;;;;;;;;5075809;27;45813;-72
2022/09/19 05:28:20;;;;;;;;;9.00;8.00;;;;;;;;5065885;27;45669;-71
2022/09/19 05:30:47;;;;;;;;;9.33;7.67;;;;;;;;5064544;28;45709;-69
2022/09/19 05:33:12;;;;;;;;;10.67;9.00;;;;;;;;5060998;27;45582;-70
2022/09/19 05:35:37;;;;;;;;;7.33;7.00;;;;;;;;5046228;27;45474;-72
2022/09/19 05:38:03;;;;;;;;;9.00;8.67;;;;;;;;5060619;27;45982;-70
2022/09/19 05:40:28;;;;;;;;;9.33;8.67;;;;;;;;5057925;28;45995;-70
2022/09/19 05:43:00;;;;;;;;;10.00;6.00;;;;;;;;5059652;27;45800;-70
2022/09/19 05:45:25;;;;;;;;;9.00;9.00;;;;;;;;5058992;28;45817;-71
2022/09/19 05:47:59;;;;;;;;;14.00;11.33;;;;;;;;5061167;27;46523;-70
2022/09/19 05:50:24;;;;;;;;;9.33;8.00;;;;;;;;5064545;28;45794;-71
2022/09/19 05:55:36;;;;;;;;;6.00;6.00;;;;;;;;5061484;27;45954;-70
2022/09/19 05:58:01;;;;;;;;;10.67;8.00;;;;;;;;5047619;28;47239;-70
2022/09/19 06:00:27;;;;;;;;;8.33;7.33;;;;;;;;5062373;27;45404;-70
2022/09/19 06:02:56;;;;;;;;;6.67;6.67;;;;;;;;5048071;27;46687;-69
2022/09/19 06:05:22;;;;;;;;;10.00;7.00;;;;;;;;5068695;27;45736;-70
2022/09/19 06:07:48;;;;;;;;;6.00;6.00;;;;;;;;5046206;28;46104;-69
2022/09/19 06:10:14;;;;;;;;;8.00;7.33;;;;;;;;5046321;28;45569;-69
2022/09/19 06:12:39;;;;;;;;;7.67;6.67;;;;;;;;5059250;28;45702;-71
2022/09/19 06:15:04;;;;;;;;;7.33;7.33;;;;;;;;5069165;27;45670;-72
2022/09/19 06:17:30;;;;;;;;;8.67;7.00;;;;;;;;5059714;28;45674;-70
2022/09/19 06:19:55;;;;;;;;;9.00;7.67;;;;;;;;5048145;28;45516;-70
2022/09/19 06:22:21;;;;;;;;;10.67;9.33;;;;;;;;5062785;27;45800;-67
2022/09/19 06:24:46;;;;;;;;;14.33;11.67;;;;;;;;5061448;27;45599;-69
2022/09/19 06:27:12;;;;;;;;;12.33;8.33;;;;;;;;5063595;28;45500;-69
2022/09/19 06:29:37;;;;;;;;;11.33;10.00;;;;;;;;5063266;27;45651;-72
2022/09/19 06:32:03;;;;;;;;;13.67;9.33;;;;;;;;5066893;27;45412;-71
2022/09/19 06:34:28;;;;;;;;;8.67;8.67;;;;;;;;5059556;27;45741;-68
2022/09/19 06:36:54;;;;;;;;;8.67;5.00;;;;;;;;5048287;28;46014;-70
2022/09/19 06:39:19;;;;;;;;;12.33;8.00;;;;;;;;5060287;27;45512;-71
2022/09/19 06:41:47;;;;;;;;;9.00;7.67;;;;;;;;5036762;28;45635;-70
2022/09/19 06:44:12;;;;;;;;;9.00;6.00;;;;;;;;5061089;27;45824;-71
2022/09/19 06:46:38;;;;;;;;;9.33;7.00;;;;;;;;5063212;27;45969;-70
2022/09/19 06:49:03;;;;;;;;;5.67;5.67;;;;;;;;5063973;27;45813;-69
2022/09/19 06:51:29;;;;;;;;;5.00;5.00;;;;;;;;5058950;28;45624;-69
2022/09/19 06:53:54;;;;;;;;;5.67;5.33;;;;;;;;5069154;28;45447;-68
2022/09/19 06:56:19;;;;;;;;;2.00;2.00;;;;;;;;5070882;27;46228;-69
2022/09/19 06:58:44;;;;;;;;;5.67;5.00;;;;;;;;5068934;28;45592;-70
2022/09/19 07:01:11;;;;;;;;;3.67;3.33;;;;;;;;5044165;28;45511;-69
2022/09/19 07:03:36;;;;;;;;;6.00;6.00;;;;;;;;5055370;27;45572;-71
2022/09/19 07:06:01;;;;;;;;;7.67;6.00;;;;;;;;5080180;27;45439;-68
2022/09/19 07:08:27;;;;;;;;;9.33;8.00;;;;;;;;5055167;27;45608;-70
2022/09/19 07:10:52;;;;;;;;;8.00;8.00;;;;;;;;5077330;27;45467;-69
2022/09/19 07:13:19;;;;;;;;;7.33;7.33;;;;;;;;5060933;27;45717;-70
2022/09/19 07:15:45;;;;;;;;;9.67;8.33;;;;;;;;5071047;27;46315;-70
2022/09/19 07:18:12;;;;;;;;;9.67;6.67;;;;;;;;5045456;28;45430;-71
2022/09/19 07:20:38;;;;;;;;;6.50;6.00;;;;;;;;5038640;28;45521;-70
2022/09/19 07:23:03;;;;;;;;;6.50;6.50;;;;;;;;5067116;27;45330;-70
2022/09/19 07:25:29;;;;;;;;;6.25;6.25;;;;;;;;5056047;27;46194;-67
2022/09/19 07:27:55;;;;;;;;;7.00;7.00;;;;;;;;5057263;27;45979;-68
2022/09/19 07:30:21;;;;;;;;;7.00;6.33;;;;;;;;5061446;27;45518;-69
2022/09/19 07:32:46;;;;;;;;;9.67;7.67;;;;;;;;5061367;27;45683;-69
2022/09/19 07:35:11;;;;;;;;;6.33;5.67;;;;;;;;5056701;28;45543;-66
2022/09/19 07:37:36;;;;;;;;;10.00;8.33;;;;;;;;5062432;28;45429;-68
2022/09/19 07:40:02;;;;;;;;;6.00;6.00;;;;;;;;5070090;27;45341;-69
2022/09/19 07:42:27;;;;;;;;;10.00;8.67;;;;;;;;5049514;28;45450;-69
2022/09/19 07:44:52;;;;;;;;;11.00;9.67;;;;;;;;5067731;28;46401;-69
2022/09/19 07:47:27;;;;;;;;;5.00;5.00;;;;;;;;5074057;28;45436;-69
2022/09/19 07:49:54;;;;;;;;;5.00;5.00;;;;;;;;5071081;27;45406;-69
2022/09/19 07:52:19;;;;;;;;;6.00;4.00;;;;;;;;5071954;28;45365;-69
2022/09/19 07:54:44;;;;;;;;;7.33;5.67;;;;;;;;5068874;27;45611;-69
2022/09/19 07:57:10;;;;;;;;;5.33;5.33;;;;;;;;5072123;27;45762;-69
2022/09/19 07:59:35;;;;;;;;;9.00;7.33;;;;;;;;5049732;27;45615;-67
2022/09/19 08:02:00;;;;;;;;;5.00;4.33;;;;;;;;5071901;28;45344;-67
2022/09/19 08:04:27;;;;;;;;;6.67;5.33;;;;;;;;5069568;27;45582;-68
2022/09/19 08:06:52;;;;;;;;;6.33;5.00;;;;;;;;5069330;27;45685;-67
2022/09/19 08:09:18;;;;;;;;;5.33;3.00;;;;;;;;5061907;27;45624;-69
2022/09/19 08:11:43;;;;;;;;;5.33;4.00;;;;;;;;5072484;27;45380;-69
2022/09/19 08:14:09;;;;;;;;;4.00;4.00;;;;;;;;5062634;27;47188;-69
2022/09/19 08:16:34;;;;;;;;;7.00;6.00;;;;;;;;5054231;27;45447;-71
2022/09/19 08:18:59;;;;;;;;;9.33;6.33;;;;;;;;5065828;28;45312;-69
2022/09/19 08:21:25;;;;;;;;;6.67;5.00;;;;;;;;5059378;28;45340;-69
2022/09/19 08:23:50;;;;;;;;;5.00;3.33;;;;;;;;5063149;27;46167;-69
2022/09/19 08:26:16;;;;;;;;;3.67;2.33;;;;;;;;5070624;27;46020;-68
2022/09/19 08:28:42;;;;;;;;;2.00;1.00;;;;;;;;5059808;27;45540;-68
2022/09/19 08:31:09;;;;;;;;;0.33;0.33;;;;;;;;5062335;28;47423;-68
2022/09/19 08:33:35;;;;;;;;;0.33;0.33;;;;;;;;5082554;27;46356;-67
2022/09/19 08:36:00;;;;;;;;;0.00;0.00;;;;;;;;5082603;27;45399;-70
2022/09/19 08:38:26;;;;;;;;;14.00;9.00;;;;;;;;5060366;27;45662;-70
2022/09/19 08:41:05;;;;;;;;;0.00;0.00;;;;;;;;5072520;28;45681;-70
2022/09/19 08:43:42;;;;;;;;;0.00;0.00;;;;;;;;5074047;27;46488;-70
2022/09/19 08:46:10;;;;;;;;;2.33;1.00;;;;;;;;5041564;28;45430;-71
2022/09/19 08:48:48;;;;;;;;;1.00;1.00;;;;;;;;5061586;27;45490;-69
2022/09/19 08:51:17;;;;;;;;;1.00;0.00;;;;;;;;5064003;27;45279;-68
2022/09/19 08:53:45;;;;;;;;;1.00;0.00;;;;;;;;5069538;27;46782;-71
2022/09/19 08:56:13;;;;;;;;;1.00;0.00;;;;;;;;5060773;27;45778;-67
2022/09/19 08:58:42;;;;;;;;;1.67;1.00;;;;;;;;5065792;27;45354;-75
2022/09/19 09:01:08;;;;;;;;;0.00;0.00;;;;;;;;5060816;28;46131;-75
2022/09/19 09:03:38;;;;;;;;;0.00;0.00;;;;;;;;5057196;27;45717;-76
2022/09/19 09:06:27;;;;;;;;;1.00;0.00;;;;;;;;5071796;27;45681;-74
2022/09/19 09:08:55;;;;;;;;;0.00;0.00;;;;;;;;5043958;28;45730;-77
2022/09/19 09:11:30;;;;;;;;;0.00;0.00;;;;;;;;5042468;28;46253;-76
2022/09/19 09:14:14;;;;;;;;;1.00;0.00;;;;;;;;5067387;27;46303;-77
2022/09/19 09:16:42;;;;;;;;;0.50;0.00;;;;;;;;5071851;27;45712;-76
2022/09/19 09:19:17;;;;;;;;;1.00;0.00;;;;;;;;5073796;27;45804;-76
2022/09/19 09:22:01;;;;;;;;;1.00;0.00;;;;;;;;5042422;28;46851;-76
2022/09/19 09:24:30;;;;;;;;;1.00;0.50;;;;;;;;5064982;27;47005;-73
2022/09/19 09:26:58;;;;;;;;;0.00;0.00;;;;;;;;5058183;27;45957;-75
2022/09/19 09:29:27;;;;;;;;;0.75;0.00;;;;;;;;5064133;27;45583;-75
2022/09/19 09:31:59;;;;;;;;;0.00;0.00;;;;;;;;5064921;27;45691;-77
2022/09/19 09:34:32;;;;;;;;;0.00;0.00;;;;;;;;5069387;27;46230;-76
2022/09/19 09:37:06;;;;;;;;;1.25;0.00;;;;;;;;5061434;27;45811;-77
2022/09/19 09:39:49;;;;;;;;;3.50;1.00;;;;;;;;5070494;27;45620;-77
2022/09/19 09:42:17;;;;;;;;;0.00;0.00;;;;;;;;5066442;27;45668;-77
2022/09/19 09:44:57;;;;;;;;;0.00;0.00;;;;;;;;5066967;27;46381;-76
2022/09/19 09:47:43;;;;;;;;;1.00;0.00;;;;;;;;5056767;27;45409;-76
2022/09/19 09:50:24;;;;;;;;;0.00;0.00;;;;;;;;5053477;27;45403;-75
2022/09/19 09:53:11;;;;;;;;;1.00;0.00;;;;;;;;5058437;28;46288;-76
2022/09/19 09:58:39;;;;;;;;;0.00;0.00;;;;;;;;5070851;27;45528;-74
2022/09/19 10:04:10;;;;;;;;;0.00;0.00;;;;;;;;5069284;27;45305;-76
2022/09/19 10:06:40;;;;;;;;;0.00;0.00;;;;;;;;5062559;27;46818;-79
2022/09/19 10:09:12;;;;;;;;;0.40;0.00;;;;;;;;5060195;27;46125;-75
2022/09/19 10:11:40;;;;;;;;;0.00;0.00;;;;;;;;5070934;28;45870;-76
2022/09/19 10:14:14;;;;;;;;;0.25;0.00;;;;;;;;5072848;28;45813;-79
2022/09/19 10:16:42;;;;;;;;;0.00;0.00;;;;;;;;5070776;28;46234;-76
2022/09/19 10:19:27;;;;;;;;;0.40;0.40;;;;;;;;5053436;28;45368;-77
2022/09/19 10:21:53;;;;;;;;;0.00;0.00;;;;;;;;5071017;28;45665;-76
2022/09/19 10:24:37;;;;;;;;;0.75;0.75;;;;;;;;5070176;27;45779;-78
2022/09/19 10:27:08;;;;;;;;;0.00;0.00;;;;;;;;5071428;28;46281;-78
2022/09/19 10:29:33;;;;;;;;;0.00;0.00;;;;;;;;5070646;28;45724;-77
2022/09/19 10:32:07;;;;;;;;;0.00;0.00;;;;;;;;5070986;28;45677;-76
2022/09/19 10:34:34;;;;;;;;;0.00;0.00;;;;;;;;5071291;28;46423;-77
2022/09/19 10:37:02;;;;;;;;;0.00;0.00;;;;;;;;5071835;27;45690;-76
2022/09/19 10:39:29;;;;;;;;;0.00;0.00;;;;;;;;5072102;28;45499;-77
2022/09/19 10:41:54;;;;;;;;;0.00;0.00;;;;;;;;5051502;27;45800;-77
2022/09/19 10:44:22;;;;;;;;;0.00;0.00;;;;;;;;5053476;28;45836;-75
2022/09/19 10:46:54;;;;;;;;;0.50;0.00;;;;;;;;5069984;27;45577;-75
2022/09/19 10:49:23;;;;;;;;;0.00;0.00;;;;;;;;5069967;28;45505;-76
2022/09/19 10:51:50;;;;;;;;;0.00;0.00;;;;;;;;5067701;27;45630;-75
2022/09/19 10:54:40;;;;;;;;;0.50;0.00;;;;;;;;5060286;28;45714;-73
2022/09/19 10:57:25;;;;;;;;;1.00;0.00;;;;;;;;5046173;28;45612;-76
2022/09/19 10:59:51;;;;;;;;;0.00;0.00;;;;;;;;5071120;28;45663;-74
2022/09/19 11:02:26;;;;;;;;;0.00;0.00;;;;;;;;5059632;27;46283;-75
2022/09/19 11:04:54;;;;;;;;;1.25;0.00;;;;;;;;5075058;27;45440;-77
2022/09/19 11:07:23;;;;;;;;;0.00;0.00;;;;;;;;5052795;27;46436;-76
2022/09/19 11:09:53;;;;;;;;;0.00;0.00;;;;;;;;5068623;27;45696;-77
2022/09/19 11:12:19;;;;;;;;;0.00;0.00;;;;;;;;5063514;28;45469;-76
2022/09/19 11:14:45;;;;;;;;;0.00;0.00;;;;;;;;5036651;27;46068;-76
2022/09/19 11:17:19;;;;;;;;;0.00;0.00;;;;;;;;5057003;28;46976;-75
2022/09/19 11:19:53;;;;;;;;;0.00;0.00;;;;;;;;5044643;28;45771;-76
2022/09/19 11:22:19;;;;;;;;;0.00;0.00;;;;;;;;5059164;28;45297;-77
2022/09/19 11:24:57;;;;;;;;;0.00;0.00;;;;;;;;5063870;27;45650;-74
2022/09/19 11:27:41;;;;;;;;;0.00;0.00;;;;;;;;5067350;27;45518;-72
2022/09/19 11:30:12;;;;;;;;;0.00;0.00;;;;;;;;5049667;28;45575;-75
2022/09/19 11:32:57;;;;;;;;;0.00;0.00;;;;;;;;5067793;28;45698;-74
2022/09/19 11:35:28;;;;;;;;;0.00;0.00;;;;;;;;5069799;27;45659;-75
2022/09/19 11:37:56;;;;;;;;;0.00;0.00;;;;;;;;5068167;28;47115;-76
2022/09/19 11:40:28;;;;;;;;;0.00;0.00;;;;;;;;5065300;28;45741;-79
2022/09/19 11:42:59;;;;;;;;;0.00;0.00;;;;;;;;5071749;28;45546;-77
2022/09/19 11:45:28;;;;;;;;;0.00;0.00;;;;;;;;5065217;27;45351;-74
2022/09/19 11:48:02;;;;;;;;;0.00;0.00;;;;;;;;5056170;27;46732;-71
2022/09/19 11:51:03;;;;;;;;;0.75;0.00;;;;;;;;5070307;27;45320;-73
2022/09/19 11:53:38;;;;;;;;;1.00;0.00;;;;;;;;4967052;28;45447;-76
2022/09/19 11:56:25;;;;;;;;;1.00;0.00;;;;;;;;5047041;28;45433;-75
2022/09/19 11:59:08;;;;;;;;;0.00;0.00;;;;;;;;5074502;28;46649;-74
2022/09/19 12:01:59;;;;;;;;;0.00;0.00;;;;;;;;5074315;28;45632;-76
2022/09/19 12:04:34;;;;;;;;;0.00;0.00;;;;;;;;5078865;27;45452;-74
2022/09/19 12:07:10;;;;;;;;;2.50;0.00;;;;;;;;5061991;27;45706;-76
2022/09/19 12:09:48;;;;;;;;;0.00;0.00;;;;;;;;5058983;28;46326;-75
2022/09/19 12:12:15;;;;;;;;;1.00;1.00;;;;;;;;5052685;28;45749;-76
2022/09/19 12:14:47;;;;;;;;;0.25;0.25;;;;;;;;5057974;27;45463;-72
2022/09/19 12:17:16;;;;;;;;;1.00;0.00;;;;;;;;5066185;28;45885;-79
2022/09/19 12:19:45;;;;;;;;;1.25;0.00;;;;;;;;5069990;27;45725;-73
2022/09/19 12:22:26;;;;;;;;;0.50;0.50;;;;;;;;5058509;27;45764;-78
2022/09/19 12:25:01;;;;;;;;;0.00;0.00;;;;;;;;5063078;28;45796;-80
2022/09/19 12:27:29;;;;;;;;;0.00;0.00;;;;;;;;5059181;28;45446;-80
2022/09/19 12:29:58;;;;;;;;;0.75;0.00;;;;;;;;5060988;28;46621;-78
2022/09/19 12:32:41;;;;;;;;;0.00;0.00;;;;;;;;5059018;28;45587;-77
2022/09/19 12:35:25;;;;;;;;;0.75;0.00;;;;;;;;5074448;27;45590;-78
2022/09/19 12:37:58;;;;;;;;;0.00;0.00;;;;;;;;5080202;27;45531;-78
2022/09/19 12:40:42;;;;;;;;;0.25;0.00;;;;;;;;5070143;27;45734;-78
2022/09/19 12:43:17;;;;;;;;;0.00;0.00;;;;;;;;5062553;28;45405;-78
2022/09/19 12:45:50;;;;;;;;;1.50;0.00;;;;;;;;5063996;28;45644;-79
2022/09/19 12:48:27;;;;;;;;;0.25;0.00;;;;;;;;5059493;28;45659;-80
2022/09/19 12:50:56;;;;;;;;;1.00;0.50;;;;;;;;5066117;27;46232;-79
2022/09/19 12:53:21;;;;;;;;;2.00;0.50;;;;;;;;5048585;28;45799;-78
2022/09/19 12:55:53;;;;;;;;;1.25;0.25;;;;;;;;5061988;27;45311;-79
2022/09/19 12:58:23;;;;;;;;;0.00;0.00;;;;;;;;5068436;28;45421;-79
2022/09/19 13:00:49;;;;;;;;;0.00;0.00;;;;;;;;5075374;28;46144;-77
2022/09/19 13:03:21;;;;;;;;;0.50;0.50;;;;;;;;5058011;28;45780;-78
2022/09/19 13:05:51;;;;;;;;;0.00;0.00;;;;;;;;5085123;27;45236;-78
2022/09/19 13:08:20;;;;;;;;;0.25;0.25;;;;;;;;5071629;28;45802;-77
2022/09/19 13:10:46;;;;;;;;;0.00;0.00;;;;;;;;5056797;28;47931;-79
2022/09/19 13:13:14;;;;;;;;;0.50;0.50;;;;;;;;5074351;27;45675;-80
2022/09/19 13:15:54;;;;;;;;;0.00;0.00;;;;;;;;5075786;27;45348;-75
2022/09/19 13:24:00;;;;;;;;;1.25;0.00;;;;;;;;5062540;28;45377;-77
2022/09/19 13:26:32;;;;;;;;;0.75;0.00;;;;;;;;5042016;28;45920;-78
2022/09/19 13:28:58;;;;;;;;;1.00;0.00;;;;;;;;5053372;28;45427;-80
2022/09/19 13:31:25;;;;;;;;;0.00;0.00;;;;;;;;5053958;28;46062;-74
2022/09/19 13:33:53;;;;;;;;;0.00;0.00;;;;;;;;5054642;27;45796;-75
2022/09/19 13:36:24;;;;;;;;;1.00;0.00;;;;;;;;5062387;27;45479;-73
2022/09/19 13:38:52;;;;;;;;;0.00;0.00;;;;;;;;5067577;27;45345;-75
2022/09/19 13:41:29;;;;;;;;;1.00;0.00;;;;;;;;5064923;27;45437;-79
2022/09/19 13:44:01;;;;;;;;;0.00;0.00;;;;;;;;5062747;27;45344;-78
2022/09/19 13:46:52;;;;;;;;;0.00;0.00;;;;;;;;5055471;28;45697;-77
2022/09/19 13:49:21;;;;;;;;;1.50;0.00;;;;;;;;5060044;27;46126;-77
2022/09/19 13:51:55;;;;;;;;;0.00;0.00;;;;;;;;5045632;28;46823;-77
2022/09/19 13:54:22;;;;;;;;;2.00;0.00;;;;;;;;5062384;27;45849;-77
2022/09/19 13:57:17;;;;;;;;;0.00;0.00;;;;;;;;5055090;28;45843;-77
2022/09/19 13:59:43;;;;;;;;;0.00;0.00;;;;;;;;5019977;28;46636;-77
2022/09/19 14:02:11;;;;;;;;;1.00;0.00;;;;;;;;5058346;28;46078;-78
2022/09/19 14:04:58;;;;;;;;;0.00;0.00;;;;;;;;5063067;27;45512;-81
2022/09/19 14:07:32;;;;;;;;;0.00;0.00;;;;;;;;5059625;28;45670;-79
2022/09/19 14:10:00;;;;;;;;;0.00;0.00;;;;;;;;5059246;28;45503;-72
2022/09/19 14:12:45;;;;;;;;;0.00;0.00;;;;;;;;5053933;28;46704;-79
2022/09/19 14:15:29;;;;;;;;;0.00;0.00;;;;;;;;5064618;28;45384;-80
2022/09/19 14:18:02;;;;;;;;;1.00;1.00;;;;;;;;5050507;27;45844;-76
2022/09/19 14:20:46;;;;;;;;;0.00;0.00;;;;;;;;5055905;27;45751;-75
2022/09/19 14:23:14;;;;;;;;;2.50;0.00;;;;;;;;5063259;27;45858;-80
2022/09/19 14:25:39;;;;;;;;;0.00;0.00;;;;;;;;5067941;27;45887;-78
2022/09/19 14:28:17;;;;;;;;;1.00;0.00;;;;;;;;5073521;27;45393;-79
2022/09/19 14:31:10;;;;;;;;;2.00;0.00;;;;;;;;5051880;28;46445;-78
2022/09/19 14:33:42;;;;;;;;;1.00;0.00;;;;;;;;5071983;27;45613;-77
2022/09/19 14:36:10;;;;;;;;;0.25;0.00;;;;;;;;5086059;27;45802;-71
2022/09/19 14:38:54;;;;;;;;;0.00;0.00;;;;;;;;5072334;28;45769;-73
2022/09/19 14:41:45;;;;;;;;;0.25;0.25;;;;;;;;5046092;28;45655;-77
2022/09/19 14:44:12;;;;;;;;;0.25;0.00;;;;;;;;5068505;27;46729;-76
2022/09/19 14:46:37;;;;;;;;;0.00;0.00;;;;;;;;5066183;27;45626;-78
2022/09/19 14:49:08;;;;;;;;;0.00;0.00;;;;;;;;5072231;28;45540;-73
2022/09/19 14:51:33;;;;;;;;;0.00;0.00;;;;;;;;5063013;27;45528;-75
2022/09/19 14:54:19;;;;;;;;;0.75;0.00;;;;;;;;5067076;27;46222;-71
2022/09/19 14:57:13;;;;;;;;;0.00;0.00;;;;;;;;5070348;27;45329;-75
2022/09/19 14:59:40;;;;;;;;;0.50;0.00;;;;;;;;5070085;27;45532;-71
2022/09/19 15:02:14;;;;;;;;;0.50;0.00;;;;;;;;5054117;28;45827;-72
2022/09/19 15:04:40;;;;;;;;;0.00;0.00;;;;;;;;5078279;27;45584;-72
2022/09/19 15:07:08;;;;;;;;;0.00;0.00;;;;;;;;5076212;28;46411;-72
2022/09/19 15:09:37;;;;;;;;;2.67;0.67;;;;;;;;5074343;27;45726;-72
2022/09/19 15:12:26;;;;;;;;;0.00;0.00;;;;;;;;5075345;27;45610;-75
2022/09/19 15:14:55;;;;;;;;;0.33;0.33;;;;;;;;5058778;27;45700;-71
2022/09/19 15:17:22;;;;;;;;;0.00;0.00;;;;;;;;5051689;28;45417;-75